sensor_id;sensor_type;location;lat;lon;timestamp;temperature;humidity
63017;DHT22;50274;45.640;11.756;2024-03-25T00:00:12;9.60;60.40
63017;DHT22;50274;45.640;11.756;2024-03-25T00:02:39;9.50;60.50
63017;DHT22;50274;45.640;11.756;2024-03-25T00:05:05;9.50;60.60
63017;DHT22;50274;45.640;11.756;2024-03-25T00:07:37;9.50;60.60
63017;DHT22;50274;45.640;11.756;2024-03-25T00:10:04;9.50;60.60
63017;DHT22;50274;45.640;11.756;2024-03-25T00:12:32;9.50;60.60
63017;DHT22;50274;45.640;11.756;2024-03-25T00:14:58;9.50;60.70
63017;DHT22;50274;45.640;11.756;2024-03-25T00:17:24;9.50;60.80
63017;DHT22;50274;45.640;11.756;2024-03-25T00:19:49;9.40;60.90
63017;DHT22;50274;45.640;11.756;2024-03-25T00:22:18;9.30;61.00
63017;DHT22;50274;45.640;11.756;2024-03-25T00:24:45;9.30;61.10
63017;DHT22;50274;45.640;11.756;2024-03-25T00:27:14;9.20;61.20
63017;DHT22;50274;45.640;11.756;2024-03-25T00:29:40;9.20;61.40
63017;DHT22;50274;45.640;11.756;2024-03-25T00:32:06;9.10;61.50
63017;DHT22;50274;45.640;11.756;2024-03-25T00:34:33;9.10;61.70
63017;DHT22;50274;45.640;11.756;2024-03-25T00:36:59;9.10;61.80
63017;DHT22;50274;45.640;11.756;2024-03-25T00:39:25;9.10;61.90
63017;DHT22;50274;45.640;11.756;2024-03-25T00:41:52;9.00;62.00
63017;DHT22;50274;45.640;11.756;2024-03-25T00:44:18;9.00;62.00
63017;DHT22;50274;45.640;11.756;2024-03-25T00:46:43;9.10;62.00
63017;DHT22;50274;45.640;11.756;2024-03-25T00:49:10;9.10;61.90
63017;DHT22;50274;45.640;11.756;2024-03-25T00:51:36;9.10;61.80
63017;DHT22;50274;45.640;11.756;2024-03-25T00:54:02;9.10;61.80
63017;DHT22;50274;45.640;11.756;2024-03-25T00:56:29;9.10;61.80
63017;DHT22;50274;45.640;11.756;2024-03-25T00:58:55;9.00;61.80
63017;DHT22;50274;45.640;11.756;2024-03-25T01:01:22;9.10;61.80
63017;DHT22;50274;45.640;11.756;2024-03-25T01:03:48;9.00;61.80
63017;DHT22;50274;45.640;11.756;2024-03-25T01:06:14;9.00;61.80
63017;DHT22;50274;45.640;11.756;2024-03-25T01:08:40;9.00;61.90
63017;DHT22;50274;45.640;11.756;2024-03-25T01:11:06;9.00;61.90
63017;DHT22;50274;45.640;11.756;2024-03-25T01:13:31;9.00;61.90
63017;DHT22;50274;45.640;11.756;2024-03-25T01:15:57;9.00;61.90
63017;DHT22;50274;45.640;11.756;2024-03-25T01:18:23;9.00;61.90
63017;DHT22;50274;45.640;11.756;2024-03-25T01:20:49;8.90;61.90
63017;DHT22;50274;45.640;11.756;2024-03-25T01:23:15;8.90;61.90
63017;DHT22;50274;45.640;11.756;2024-03-25T01:25:41;8.80;62.00
63017;DHT22;50274;45.640;11.756;2024-03-25T01:28:07;8.80;62.00
63017;DHT22;50274;45.640;11.756;2024-03-25T01:30:33;8.80;62.00
63017;DHT22;50274;45.640;11.756;2024-03-25T01:33:01;8.70;62.00
63017;DHT22;50274;45.640;11.756;2024-03-25T01:35:27;8.70;62.10
63017;DHT22;50274;45.640;11.756;2024-03-25T01:37:53;8.60;62.30
63017;DHT22;50274;45.640;11.756;2024-03-25T01:40:19;8.50;62.40
63017;DHT22;50274;45.640;11.756;2024-03-25T01:43:04;8.50;62.60
63017;DHT22;50274;45.640;11.756;2024-03-25T01:45:31;8.50;62.70
63017;DHT22;50274;45.640;11.756;2024-03-25T01:47:59;8.40;62.70
63017;DHT22;50274;45.640;11.756;2024-03-25T01:50:26;8.30;62.80
63017;DHT22;50274;45.640;11.756;2024-03-25T01:52:52;8.30;62.90
63017;DHT22;50274;45.640;11.756;2024-03-25T01:55:21;8.30;63.00
63017;DHT22;50274;45.640;11.756;2024-03-25T01:57:49;8.30;63.00
63017;DHT22;50274;45.640;11.756;2024-03-25T02:00:15;8.30;63.00
63017;DHT22;50274;45.640;11.756;2024-03-25T02:02:45;8.40;63.00
63017;DHT22;50274;45.640;11.756;2024-03-25T02:05:15;8.40;62.90
63017;DHT22;50274;45.640;11.756;2024-03-25T02:07:43;8.30;62.80
63017;DHT22;50274;45.640;11.756;2024-03-25T02:10:09;8.30;62.90
63017;DHT22;50274;45.640;11.756;2024-03-25T02:12:39;8.30;63.00
63017;DHT22;50274;45.640;11.756;2024-03-25T02:15:06;8.30;63.00
63017;DHT22;50274;45.640;11.756;2024-03-25T02:17:31;8.30;63.00
63017;DHT22;50274;45.640;11.756;2024-03-25T02:19:57;8.30;63.00
63017;DHT22;50274;45.640;11.756;2024-03-25T02:22:23;8.30;63.00
63017;DHT22;50274;45.640;11.756;2024-03-25T02:24:52;8.20;63.00
63017;DHT22;50274;45.640;11.756;2024-03-25T02:27:18;8.20;63.10
63017;DHT22;50274;45.640;11.756;2024-03-25T02:29:44;8.10;63.10
63017;DHT22;50274;45.640;11.756;2024-03-25T02:32:10;8.10;63.30
63017;DHT22;50274;45.640;11.756;2024-03-25T02:34:44;8.10;63.30
63017;DHT22;50274;45.640;11.756;2024-03-25T02:37:11;8.00;63.40
63017;DHT22;50274;45.640;11.756;2024-03-25T02:39:37;8.00;63.50
63017;DHT22;50274;45.640;11.756;2024-03-25T02:42:03;7.90;63.70
63017;DHT22;50274;45.640;11.756;2024-03-25T02:44:30;7.80;63.70
63017;DHT22;50274;45.640;11.756;2024-03-25T02:46:57;7.80;63.80
63017;DHT22;50274;45.640;11.756;2024-03-25T02:49:23;7.70;63.80
63017;DHT22;50274;45.640;11.756;2024-03-25T02:51:49;7.70;63.80
63017;DHT22;50274;45.640;11.756;2024-03-25T02:54:14;7.80;63.70
63017;DHT22;50274;45.640;11.756;2024-03-25T02:56:40;7.80;63.60
63017;DHT22;50274;45.640;11.756;2024-03-25T02:59:06;7.80;63.60
63017;DHT22;50274;45.640;11.756;2024-03-25T03:01:32;7.80;63.60
63017;DHT22;50274;45.640;11.756;2024-03-25T03:03:58;7.80;63.50
63017;DHT22;50274;45.640;11.756;2024-03-25T03:06:24;7.80;63.40
63017;DHT22;50274;45.640;11.756;2024-03-25T03:08:50;7.80;63.40
63017;DHT22;50274;45.640;11.756;2024-03-25T03:11:15;7.80;63.40
63017;DHT22;50274;45.640;11.756;2024-03-25T03:13:41;7.70;63.40
63017;DHT22;50274;45.640;11.756;2024-03-25T03:16:07;7.70;63.30
63017;DHT22;50274;45.640;11.756;2024-03-25T03:18:33;7.70;63.30
63017;DHT22;50274;45.640;11.756;2024-03-25T03:20:58;7.70;63.40
63017;DHT22;50274;45.640;11.756;2024-03-25T03:23:24;7.70;63.40
63017;DHT22;50274;45.640;11.756;2024-03-25T03:25:50;7.70;63.20
63017;DHT22;50274;45.640;11.756;2024-03-25T03:28:17;7.60;63.30
63017;DHT22;50274;45.640;11.756;2024-03-25T03:30:43;7.60;63.30
63017;DHT22;50274;45.640;11.756;2024-03-25T03:33:09;7.50;63.40
63017;DHT22;50274;45.640;11.756;2024-03-25T03:35:35;7.50;63.40
63017;DHT22;50274;45.640;11.756;2024-03-25T03:38:01;7.50;63.40
63017;DHT22;50274;45.640;11.756;2024-03-25T03:40:27;7.50;63.40
63017;DHT22;50274;45.640;11.756;2024-03-25T03:42:53;7.50;63.40
63017;DHT22;50274;45.640;11.756;2024-03-25T03:45:19;7.50;63.50
63017;DHT22;50274;45.640;11.756;2024-03-25T03:47:45;7.40;63.40
63017;DHT22;50274;45.640;11.756;2024-03-25T03:50:11;7.50;63.40
63017;DHT22;50274;45.640;11.756;2024-03-25T03:52:37;7.50;63.40
63017;DHT22;50274;45.640;11.756;2024-03-25T03:55:02;7.40;63.30
63017;DHT22;50274;45.640;11.756;2024-03-25T03:57:31;7.40;63.30
63017;DHT22;50274;45.640;11.756;2024-03-25T03:59:58;7.30;63.50
63017;DHT22;50274;45.640;11.756;2024-03-25T04:02:25;7.30;63.50
63017;DHT22;50274;45.640;11.756;2024-03-25T04:04:51;7.20;63.60
63017;DHT22;50274;45.640;11.756;2024-03-25T04:07:17;7.20;63.70
63017;DHT22;50274;45.640;11.756;2024-03-25T04:09:43;7.10;63.90
63017;DHT22;50274;45.640;11.756;2024-03-25T04:12:09;7.00;64.00
63017;DHT22;50274;45.640;11.756;2024-03-25T04:14:35;7.00;64.20
63017;DHT22;50274;45.640;11.756;2024-03-25T04:17:01;7.00;64.30
63017;DHT22;50274;45.640;11.756;2024-03-25T04:19:28;7.00;64.20
63017;DHT22;50274;45.640;11.756;2024-03-25T04:21:54;6.90;64.40
63017;DHT22;50274;45.640;11.756;2024-03-25T04:24:20;6.90;64.40
63017;DHT22;50274;45.640;11.756;2024-03-25T04:26:46;6.90;64.50
63017;DHT22;50274;45.640;11.756;2024-03-25T04:29:12;6.90;64.50
63017;DHT22;50274;45.640;11.756;2024-03-25T04:31:38;6.90;64.50
63017;DHT22;50274;45.640;11.756;2024-03-25T04:34:04;6.90;64.50
63017;DHT22;50274;45.640;11.756;2024-03-25T04:36:32;7.00;64.50
63017;DHT22;50274;45.640;11.756;2024-03-25T04:38:58;7.00;64.40
63017;DHT22;50274;45.640;11.756;2024-03-25T04:41:24;7.00;64.40
63017;DHT22;50274;45.640;11.756;2024-03-25T04:43:49;7.00;64.40
63017;DHT22;50274;45.640;11.756;2024-03-25T04:46:15;6.90;64.30
63017;DHT22;50274;45.640;11.756;2024-03-25T04:48:41;6.80;64.40
63017;DHT22;50274;45.640;11.756;2024-03-25T04:51:07;6.80;64.50
63017;DHT22;50274;45.640;11.756;2024-03-25T04:53:34;6.80;64.60
63017;DHT22;50274;45.640;11.756;2024-03-25T04:56:00;6.80;64.60
63017;DHT22;50274;45.640;11.756;2024-03-25T04:58:26;6.80;64.50
63017;DHT22;50274;45.640;11.756;2024-03-25T05:00:52;6.80;64.60
63017;DHT22;50274;45.640;11.756;2024-03-25T05:03:18;6.80;64.40
63017;DHT22;50274;45.640;11.756;2024-03-25T05:05:46;6.70;64.40
63017;DHT22;50274;45.640;11.756;2024-03-25T05:08:12;6.70;64.40
63017;DHT22;50274;45.640;11.756;2024-03-25T05:10:37;6.70;64.40
63017;DHT22;50274;45.640;11.756;2024-03-25T05:13:03;6.60;64.40
63017;DHT22;50274;45.640;11.756;2024-03-25T05:15:29;6.60;64.40
63017;DHT22;50274;45.640;11.756;2024-03-25T05:17:55;6.50;64.40
63017;DHT22;50274;45.640;11.756;2024-03-25T05:20:21;6.50;64.40
63017;DHT22;50274;45.640;11.756;2024-03-25T05:22:47;6.50;64.40
63017;DHT22;50274;45.640;11.756;2024-03-25T05:25:13;6.50;64.30
63017;DHT22;50274;45.640;11.756;2024-03-25T05:27:38;6.50;64.30
63017;DHT22;50274;45.640;11.756;2024-03-25T05:30:05;6.50;64.20
63017;DHT22;50274;45.640;11.756;2024-03-25T05:32:31;6.40;64.00
63017;DHT22;50274;45.640;11.756;2024-03-25T05:34:57;6.30;64.20
63017;DHT22;50274;45.640;11.756;2024-03-25T05:37:23;6.30;64.30
63017;DHT22;50274;45.640;11.756;2024-03-25T05:39:48;6.30;64.40
63017;DHT22;50274;45.640;11.756;2024-03-25T05:42:14;6.30;64.50
63017;DHT22;50274;45.640;11.756;2024-03-25T05:44:40;6.30;64.50
63017;DHT22;50274;45.640;11.756;2024-03-25T05:47:06;6.40;64.60
63017;DHT22;50274;45.640;11.756;2024-03-25T05:49:31;6.40;64.60
63017;DHT22;50274;45.640;11.756;2024-03-25T05:51:57;6.50;64.50
63017;DHT22;50274;45.640;11.756;2024-03-25T05:54:23;6.60;64.00
63017;DHT22;50274;45.640;11.756;2024-03-25T05:56:49;6.60;63.50
63017;DHT22;50274;45.640;11.756;2024-03-25T05:59:15;6.60;63.40
63017;DHT22;50274;45.640;11.756;2024-03-25T06:01:41;6.60;63.40
63017;DHT22;50274;45.640;11.756;2024-03-25T06:04:07;6.60;63.40
63017;DHT22;50274;45.640;11.756;2024-03-25T06:06:32;6.70;63.30
63017;DHT22;50274;45.640;11.756;2024-03-25T06:08:58;6.80;63.10
63017;DHT22;50274;45.640;11.756;2024-03-25T06:11:24;6.90;62.10
63017;DHT22;50274;45.640;11.756;2024-03-25T06:13:50;6.90;61.80
63017;DHT22;50274;45.640;11.756;2024-03-25T06:16:15;7.00;61.70
63017;DHT22;50274;45.640;11.756;2024-03-25T06:18:41;7.10;61.70
63017;DHT22;50274;45.640;11.756;2024-03-25T06:21:07;7.20;61.80
63017;DHT22;50274;45.640;11.756;2024-03-25T06:23:33;7.30;61.80
63017;DHT22;50274;45.640;11.756;2024-03-25T06:26:00;7.30;61.70
63017;DHT22;50274;45.640;11.756;2024-03-25T06:28:26;7.40;61.70
63017;DHT22;50274;45.640;11.756;2024-03-25T06:30:52;7.50;61.60
63017;DHT22;50274;45.640;11.756;2024-03-25T06:33:37;7.60;61.60
63017;DHT22;50274;45.640;11.756;2024-03-25T06:36:21;7.70;61.50
63017;DHT22;50274;45.640;11.756;2024-03-25T06:38:47;7.90;61.50
63017;DHT22;50274;45.640;11.756;2024-03-25T06:41:13;7.90;61.50
63017;DHT22;50274;45.640;11.756;2024-03-25T06:43:39;8.00;61.40
63017;DHT22;50274;45.640;11.756;2024-03-25T06:46:08;8.20;61.30
63017;DHT22;50274;45.640;11.756;2024-03-25T06:48:34;8.30;61.10
63017;DHT22;50274;45.640;11.756;2024-03-25T06:51:03;8.40;61.10
63017;DHT22;50274;45.640;11.756;2024-03-25T06:53:29;8.50;60.70
63017;DHT22;50274;45.640;11.756;2024-03-25T06:55:59;8.60;60.20
63017;DHT22;50274;45.640;11.756;2024-03-25T06:58:26;8.70;60.00
63017;DHT22;50274;45.640;11.756;2024-03-25T07:00:53;8.90;59.90
63017;DHT22;50274;45.640;11.756;2024-03-25T07:03:20;9.00;59.40
63017;DHT22;50274;45.640;11.756;2024-03-25T07:05:47;9.10;58.80
63017;DHT22;50274;45.640;11.756;2024-03-25T07:08:13;9.20;58.50
63017;DHT22;50274;45.640;11.756;2024-03-25T07:10:41;9.30;58.50
63017;DHT22;50274;45.640;11.756;2024-03-25T07:13:07;9.40;56.90
63017;DHT22;50274;45.640;11.756;2024-03-25T07:15:33;9.50;55.90
63017;DHT22;50274;45.640;11.756;2024-03-25T07:17:59;9.60;55.60
63017;DHT22;50274;45.640;11.756;2024-03-25T07:20:25;9.70;55.90
63017;DHT22;50274;45.640;11.756;2024-03-25T07:22:52;9.80;56.00
63017;DHT22;50274;45.640;11.756;2024-03-25T07:25:24;9.90;55.60
63017;DHT22;50274;45.640;11.756;2024-03-25T07:27:51;10.00;55.30
63017;DHT22;50274;45.640;11.756;2024-03-25T07:30:17;10.10;55.20
63017;DHT22;50274;45.640;11.756;2024-03-25T07:32:43;10.30;54.80
63017;DHT22;50274;45.640;11.756;2024-03-25T07:35:11;10.30;54.80
63017;DHT22;50274;45.640;11.756;2024-03-25T07:37:37;10.40;53.90
63017;DHT22;50274;45.640;11.756;2024-03-25T07:40:03;10.60;54.20
63017;DHT22;50274;45.640;11.756;2024-03-25T07:42:29;10.60;54.80
63017;DHT22;50274;45.640;11.756;2024-03-25T07:44:56;10.70;55.60
63017;DHT22;50274;45.640;11.756;2024-03-25T07:47:24;10.80;55.90
63017;DHT22;50274;45.640;11.756;2024-03-25T07:49:50;10.80;54.20
63017;DHT22;50274;45.640;11.756;2024-03-25T07:52:16;10.90;54.30
63017;DHT22;50274;45.640;11.756;2024-03-25T07:54:42;10.90;54.80
63017;DHT22;50274;45.640;11.756;2024-03-25T07:57:08;11.00;54.30
63017;DHT22;50274;45.640;11.756;2024-03-25T07:59:35;11.10;54.50
63017;DHT22;50274;45.640;11.756;2024-03-25T08:02:00;11.20;54.80
63017;DHT22;50274;45.640;11.756;2024-03-25T08:04:26;11.30;54.70
63017;DHT22;50274;45.640;11.756;2024-03-25T08:06:52;11.30;54.90
63017;DHT22;50274;45.640;11.756;2024-03-25T08:09:18;11.40;55.70
63017;DHT22;50274;45.640;11.756;2024-03-25T08:11:45;11.50;56.20
63017;DHT22;50274;45.640;11.756;2024-03-25T08:14:11;11.50;56.50
63017;DHT22;50274;45.640;11.756;2024-03-25T08:16:38;11.60;56.00
63017;DHT22;50274;45.640;11.756;2024-03-25T08:19:04;11.70;55.60
63017;DHT22;50274;45.640;11.756;2024-03-25T08:21:30;11.80;55.30
63017;DHT22;50274;45.640;11.756;2024-03-25T08:23:55;11.90;55.00
63017;DHT22;50274;45.640;11.756;2024-03-25T08:26:21;12.00;55.00
63017;DHT22;50274;45.640;11.756;2024-03-25T08:28:47;12.10;54.80
63017;DHT22;50274;45.640;11.756;2024-03-25T08:31:15;12.20;54.80
63017;DHT22;50274;45.640;11.756;2024-03-25T08:33:41;12.30;54.40
63017;DHT22;50274;45.640;11.756;2024-03-25T08:36:07;12.40;54.70
63017;DHT22;50274;45.640;11.756;2024-03-25T08:38:33;12.50;53.70
63017;DHT22;50274;45.640;11.756;2024-03-25T08:41:00;12.50;53.70
63017;DHT22;50274;45.640;11.756;2024-03-25T08:43:26;12.60;53.50
63017;DHT22;50274;45.640;11.756;2024-03-25T08:45:52;12.70;54.00
63017;DHT22;50274;45.640;11.756;2024-03-25T08:48:18;12.80;54.20
63017;DHT22;50274;45.640;11.756;2024-03-25T08:50:44;13.00;53.50
63017;DHT22;50274;45.640;11.756;2024-03-25T08:53:09;13.10;53.30
63017;DHT22;50274;45.640;11.756;2024-03-25T08:55:35;13.20;53.20
63017;DHT22;50274;45.640;11.756;2024-03-25T08:58:01;13.30;53.20
63017;DHT22;50274;45.640;11.756;2024-03-25T09:00:28;13.40;53.10
63017;DHT22;50274;45.640;11.756;2024-03-25T09:02:54;13.50;52.20
63017;DHT22;50274;45.640;11.756;2024-03-25T09:05:20;13.60;51.30
63017;DHT22;50274;45.640;11.756;2024-03-25T09:07:49;13.70;51.50
63017;DHT22;50274;45.640;11.756;2024-03-25T09:10:17;13.80;51.60
63017;DHT22;50274;45.640;11.756;2024-03-25T09:13:01;13.90;51.70
63017;DHT22;50274;45.640;11.756;2024-03-25T09:15:29;14.00;51.10
63017;DHT22;50274;45.640;11.756;2024-03-25T09:17:54;14.00;51.40
63017;DHT22;50274;45.640;11.756;2024-03-25T09:20:21;14.20;52.00
63017;DHT22;50274;45.640;11.756;2024-03-25T09:22:47;14.30;52.10
63017;DHT22;50274;45.640;11.756;2024-03-25T09:25:16;14.40;52.00
63017;DHT22;50274;45.640;11.756;2024-03-25T09:27:51;14.50;49.70
63017;DHT22;50274;45.640;11.756;2024-03-25T09:30:17;14.70;48.20
63017;DHT22;50274;45.640;11.756;2024-03-25T09:32:46;14.80;47.30
63017;DHT22;50274;45.640;11.756;2024-03-25T09:35:12;14.80;46.70
63017;DHT22;50274;45.640;11.756;2024-03-25T09:37:38;15.00;46.70
63017;DHT22;50274;45.640;11.756;2024-03-25T09:40:05;15.00;47.70
63017;DHT22;50274;45.640;11.756;2024-03-25T09:42:47;15.10;48.20
63017;DHT22;50274;45.640;11.756;2024-03-25T09:45:15;15.20;47.50
63017;DHT22;50274;45.640;11.756;2024-03-25T09:47:47;15.30;46.80
63017;DHT22;50274;45.640;11.756;2024-03-25T09:50:14;15.30;46.40
63017;DHT22;50274;45.640;11.756;2024-03-25T09:52:48;15.50;46.70
63017;DHT22;50274;45.640;11.756;2024-03-25T09:55:15;15.60;45.20
63017;DHT22;50274;45.640;11.756;2024-03-25T09:57:42;15.70;45.30
63017;DHT22;50274;45.640;11.756;2024-03-25T10:00:09;15.90;45.80
63017;DHT22;50274;45.640;11.756;2024-03-25T10:02:38;16.00;45.60
63017;DHT22;50274;45.640;11.756;2024-03-25T10:05:08;16.10;45.80
63017;DHT22;50274;45.640;11.756;2024-03-25T10:07:34;16.20;45.10
63017;DHT22;50274;45.640;11.756;2024-03-25T10:10:07;16.30;43.80
63017;DHT22;50274;45.640;11.756;2024-03-25T10:12:35;16.30;43.20
63017;DHT22;50274;45.640;11.756;2024-03-25T10:15:01;16.40;42.60
63017;DHT22;50274;45.640;11.756;2024-03-25T10:17:27;16.50;42.60
63017;DHT22;50274;45.640;11.756;2024-03-25T10:19:56;16.70;43.00
63017;DHT22;50274;45.640;11.756;2024-03-25T10:22:21;16.90;42.10
63017;DHT22;50274;45.640;11.756;2024-03-25T10:24:47;17.00;41.90
63017;DHT22;50274;45.640;11.756;2024-03-25T10:27:23;17.10;41.50
63017;DHT22;50274;45.640;11.756;2024-03-25T10:29:53;17.40;41.90
63017;DHT22;50274;45.640;11.756;2024-03-25T10:32:21;17.50;39.70
63017;DHT22;50274;45.640;11.756;2024-03-25T10:34:50;17.60;39.30
63017;DHT22;50274;45.640;11.756;2024-03-25T10:37:18;17.60;37.50
63017;DHT22;50274;45.640;11.756;2024-03-25T10:39:50;17.60;38.20
63017;DHT22;50274;45.640;11.756;2024-03-25T10:42:20;17.70;37.10
63017;DHT22;50274;45.640;11.756;2024-03-25T10:44:49;17.70;36.70
63017;DHT22;50274;45.640;11.756;2024-03-25T10:47:21;17.80;36.00
63017;DHT22;50274;45.640;11.756;2024-03-25T10:49:58;18.00;36.00
63017;DHT22;50274;45.640;11.756;2024-03-25T10:52:27;18.10;36.10
63017;DHT22;50274;45.640;11.756;2024-03-25T10:54:55;18.20;35.60
63017;DHT22;50274;45.640;11.756;2024-03-25T10:57:21;18.10;35.40
63017;DHT22;50274;45.640;11.756;2024-03-25T10:59:49;18.30;36.10
63017;DHT22;50274;45.640;11.756;2024-03-25T11:02:15;18.30;35.20
63017;DHT22;50274;45.640;11.756;2024-03-25T11:04:43;18.40;35.20
63017;DHT22;50274;45.640;11.756;2024-03-25T11:07:12;18.50;35.60
63017;DHT22;50274;45.640;11.756;2024-03-25T11:09:39;18.60;35.60
63017;DHT22;50274;45.640;11.756;2024-03-25T11:12:05;18.70;35.30
63017;DHT22;50274;45.640;11.756;2024-03-25T11:14:31;18.80;35.20
63017;DHT22;50274;45.640;11.756;2024-03-25T11:16:58;18.90;35.40
63017;DHT22;50274;45.640;11.756;2024-03-25T11:19:29;19.10;35.90
63017;DHT22;50274;45.640;11.756;2024-03-25T11:22:07;19.10;35.40
63017;DHT22;50274;45.640;11.756;2024-03-25T11:24:34;19.20;35.70
63017;DHT22;50274;45.640;11.756;2024-03-25T11:27:02;19.60;36.20
63017;DHT22;50274;45.640;11.756;2024-03-25T11:29:28;19.50;35.90
63017;DHT22;50274;45.640;11.756;2024-03-25T11:31:55;19.60;36.00
63017;DHT22;50274;45.640;11.756;2024-03-25T11:34:24;19.60;35.60
63017;DHT22;50274;45.640;11.756;2024-03-25T11:36:50;19.80;35.90
63017;DHT22;50274;45.640;11.756;2024-03-25T11:39:17;20.10;35.90
63017;DHT22;50274;45.640;11.756;2024-03-25T11:41:43;20.10;35.70
63017;DHT22;50274;45.640;11.756;2024-03-25T11:44:11;20.30;36.00
63017;DHT22;50274;45.640;11.756;2024-03-25T11:46:41;20.30;35.20
63017;DHT22;50274;45.640;11.756;2024-03-25T11:49:14;20.30;34.50
63017;DHT22;50274;45.640;11.756;2024-03-25T11:51:42;20.50;34.70
63017;DHT22;50274;45.640;11.756;2024-03-25T11:54:10;20.70;34.60
63017;DHT22;50274;45.640;11.756;2024-03-25T11:56:37;20.80;35.10
63017;DHT22;50274;45.640;11.756;2024-03-25T11:59:05;20.80;35.20
63017;DHT22;50274;45.640;11.756;2024-03-25T12:01:32;20.90;35.50
63017;DHT22;50274;45.640;11.756;2024-03-25T12:04:12;20.80;35.30
63017;DHT22;50274;45.640;11.756;2024-03-25T12:06:38;20.80;35.20
63017;DHT22;50274;45.640;11.756;2024-03-25T12:09:04;20.80;35.20
63017;DHT22;50274;45.640;11.756;2024-03-25T12:11:48;20.70;34.70
63017;DHT22;50274;45.640;11.756;2024-03-25T12:14:14;20.90;35.30
63017;DHT22;50274;45.640;11.756;2024-03-25T12:16:41;21.00;35.60
63017;DHT22;50274;45.640;11.756;2024-03-25T12:19:07;21.10;35.20
63017;DHT22;50274;45.640;11.756;2024-03-25T12:21:33;21.30;35.40
63017;DHT22;50274;45.640;11.756;2024-03-25T12:24:00;21.60;35.60
63017;DHT22;50274;45.640;11.756;2024-03-25T12:26:25;21.60;33.40
63017;DHT22;50274;45.640;11.756;2024-03-25T12:28:52;21.60;33.00
63017;DHT22;50274;45.640;11.756;2024-03-25T12:31:18;21.60;32.70
63017;DHT22;50274;45.640;11.756;2024-03-25T12:33:44;21.60;32.70
63017;DHT22;50274;45.640;11.756;2024-03-25T12:36:13;21.60;32.30
63017;DHT22;50274;45.640;11.756;2024-03-25T12:38:39;21.60;33.20
63017;DHT22;50274;45.640;11.756;2024-03-25T12:41:10;21.70;32.80
63017;DHT22;50274;45.640;11.756;2024-03-25T12:43:46;21.70;32.90
63017;DHT22;50274;45.640;11.756;2024-03-25T12:46:12;21.70;33.20
63017;DHT22;50274;45.640;11.756;2024-03-25T12:48:38;21.80;33.30
63017;DHT22;50274;45.640;11.756;2024-03-25T12:51:04;21.80;33.50
63017;DHT22;50274;45.640;11.756;2024-03-25T12:53:30;21.90;33.60
63017;DHT22;50274;45.640;11.756;2024-03-25T12:55:56;21.70;32.80
63017;DHT22;50274;45.640;11.756;2024-03-25T12:58:22;21.70;32.30
63017;DHT22;50274;45.640;11.756;2024-03-25T13:00:47;21.60;32.10
63017;DHT22;50274;45.640;11.756;2024-03-25T13:03:14;21.60;31.20
63017;DHT22;50274;45.640;11.756;2024-03-25T13:05:42;21.60;31.00
63017;DHT22;50274;45.640;11.756;2024-03-25T13:08:09;21.60;31.30
63017;DHT22;50274;45.640;11.756;2024-03-25T13:10:35;21.50;31.70
63017;DHT22;50274;45.640;11.756;2024-03-25T13:13:01;21.60;32.10
63017;DHT22;50274;45.640;11.756;2024-03-25T13:15:27;21.50;32.10
63017;DHT22;50274;45.640;11.756;2024-03-25T13:17:54;21.60;31.80
63017;DHT22;50274;45.640;11.756;2024-03-25T13:20:20;21.60;31.90
63017;DHT22;50274;45.640;11.756;2024-03-25T13:22:46;21.70;31.10
63017;DHT22;50274;45.640;11.756;2024-03-25T13:25:13;21.70;31.50
63017;DHT22;50274;45.640;11.756;2024-03-25T13:27:38;21.60;31.50
63017;DHT22;50274;45.640;11.756;2024-03-25T13:30:05;21.60;31.60
63017;DHT22;50274;45.640;11.756;2024-03-25T13:32:31;21.70;32.10
63017;DHT22;50274;45.640;11.756;2024-03-25T13:34:57;21.60;30.50
63017;DHT22;50274;45.640;11.756;2024-03-25T13:37:23;21.70;30.70
63017;DHT22;50274;45.640;11.756;2024-03-25T13:39:50;21.80;31.00
63017;DHT22;50274;45.640;11.756;2024-03-25T13:42:16;21.60;29.00
63017;DHT22;50274;45.640;11.756;2024-03-25T13:44:42;21.60;29.50
63017;DHT22;50274;45.640;11.756;2024-03-25T13:47:08;21.60;29.50
63017;DHT22;50274;45.640;11.756;2024-03-25T13:49:34;21.50;29.30
63017;DHT22;50274;45.640;11.756;2024-03-25T13:52:00;21.60;29.70
63017;DHT22;50274;45.640;11.756;2024-03-25T13:54:28;21.60;30.50
63017;DHT22;50274;45.640;11.756;2024-03-25T13:56:55;21.60;31.00
63017;DHT22;50274;45.640;11.756;2024-03-25T13:59:21;21.70;30.80
63017;DHT22;50274;45.640;11.756;2024-03-25T14:01:47;21.60;29.90
63017;DHT22;50274;45.640;11.756;2024-03-25T14:04:13;21.50;30.00
63017;DHT22;50274;45.640;11.756;2024-03-25T14:06:39;21.40;30.00
63017;DHT22;50274;45.640;11.756;2024-03-25T14:09:06;21.30;30.10
63017;DHT22;50274;45.640;11.756;2024-03-25T14:11:35;21.30;30.10
63017;DHT22;50274;45.640;11.756;2024-03-25T14:14:02;21.20;30.60
63017;DHT22;50274;45.640;11.756;2024-03-25T14:16:30;21.10;30.70
63017;DHT22;50274;45.640;11.756;2024-03-25T14:18:56;20.70;30.20
63017;DHT22;50274;45.640;11.756;2024-03-25T14:21:22;20.70;30.60
63017;DHT22;50274;45.640;11.756;2024-03-25T14:23:48;20.70;30.60
63017;DHT22;50274;45.640;11.756;2024-03-25T14:26:14;20.60;30.40
63017;DHT22;50274;45.640;11.756;2024-03-25T14:28:42;20.50;31.10
63017;DHT22;50274;45.640;11.756;2024-03-25T14:31:08;20.60;31.30
63017;DHT22;50274;45.640;11.756;2024-03-25T14:33:34;20.70;31.30
63017;DHT22;50274;45.640;11.756;2024-03-25T14:36:00;20.80;31.40
63017;DHT22;50274;45.640;11.756;2024-03-25T14:38:26;20.80;31.70
63017;DHT22;50274;45.640;11.756;2024-03-25T14:40:52;20.80;32.10
63017;DHT22;50274;45.640;11.756;2024-03-25T14:43:18;20.80;32.20
63017;DHT22;50274;45.640;11.756;2024-03-25T14:45:48;20.70;32.40
63017;DHT22;50274;45.640;11.756;2024-03-25T14:48:17;20.70;32.80
63017;DHT22;50274;45.640;11.756;2024-03-25T14:50:43;20.80;32.50
63017;DHT22;50274;45.640;11.756;2024-03-25T14:53:09;20.70;32.30
63017;DHT22;50274;45.640;11.756;2024-03-25T14:55:35;20.60;32.90
63017;DHT22;50274;45.640;11.756;2024-03-25T14:58:01;20.60;32.50
63017;DHT22;50274;45.640;11.756;2024-03-25T15:00:27;20.50;32.30
63017;DHT22;50274;45.640;11.756;2024-03-25T15:02:53;20.40;32.40
63017;DHT22;50274;45.640;11.756;2024-03-25T15:05:19;20.20;31.80
63017;DHT22;50274;45.640;11.756;2024-03-25T15:07:45;20.30;32.50
63017;DHT22;50274;45.640;11.756;2024-03-25T15:10:11;20.20;32.90
63017;DHT22;50274;45.640;11.756;2024-03-25T15:12:40;20.10;33.40
63017;DHT22;50274;45.640;11.756;2024-03-25T15:15:06;20.00;33.10
63017;DHT22;50274;45.640;11.756;2024-03-25T15:17:34;19.80;33.50
63017;DHT22;50274;45.640;11.756;2024-03-25T15:20:02;19.70;33.90